Newport Coast, CA (92657)

4:17 PM PDT on March 23, 2017 (GMT -0700)
Cameo Highlands | | Change Station
Active Advisory: Beach Hazard Statement

Elev 164 ft 33.59 °N, 117.86 °W | Updated 9 seconds ago

Clear
Clear
63.5 °F
Feels Like 63.5 °F
N
6.0
Wind Variable Wind from SSW
Gusts 7.4 mph

Today
High -- | Low -- °F
--% Chance of Precip.
Yesterday
High -- | Low -- °F
Precip. -- in
Pressure 30.13 in
Visibility 10.0 miles
Clouds Few 6000 ft
Few 25000 ft
Dew Point 34 °F
Humidity 33%
Rainfall 0.00 in
Snow Depth Not available.
6:50 AM 7:05 PM
Waning Crescent, 20% visible
METAR KSNA 232253Z 23010KT 210V270 10SM FEW060 FEW250 18/06 A3012 RMK AO2 SLP201 T01780061
Pressure 30.13 in
Visibility 10.0 miles
Clouds Few 6000 ft
Few 25000 ft
Dew Point 34 °F
Humidity 33%
Rainfall 0.00 in
Snow Depth Not available.
6:50 AM 7:05 PM
Waning Crescent, 20% visible
METAR KSNA 232253Z 23010KT 210V270 10SM FEW060 FEW250 18/06 A3012 RMK AO2 SLP201 T01780061

Get Your Daily Forecast Email!

Thanks for signing up!

Be on the lookout for a verification email in your inbox.

You'll start receiving severe weather alerts in your inbox..

×

10-Day Weather Forecast

Almanac

Astronomy

Mar. 23, 2017 Rise Set
Actual Time
Civil Twilight
Nautical Twilight
Astronomical Twilight
Moon
Length of Visible Light
Length of Day
Tomorrow will be .
, % of the Moon is Illuminated

Today's Extremes

State Highs State Lows

Community

WunderPhotos

Upload Photos

1,962,540 photos uploaded!

WunderBlog® & News

Nearby

Air Quality

  Air Quality AQ Index Pollutant
Not available.

Snow Depth

Station Depth Elevation

Earthquake Activity

City Distance Mag. Time & Date
Minimum magnitude displayed is 2.5.

Earthquake Activity

City Distance Mag. Time & Date
Minimum magnitude displayed is 2.5.

Coastal Water Temperatures

Place Temperature

Stations

Nearby Weather Stations

Station Location Temp. Windchill Dew Point Humidity Wind Precip. Elev Updated Type
                   

Watches & Warnings

Beach Hazard Statement
Issued: 12:53 PM PDT Mar. 23, 2017 – National Weather Service

... Beach hazards statement remains in effect until 6 PM PDT this
evening...

* waves and surf... surf heights of 3 to 6 feet with local 7 foot
sets.

* Timing... through early this evening.

* Impacts... dangerous conditions in the surf zone due to
elevated surf along with strong rip currents.

Precautionary/preparedness actions...

A beach hazards statement for elevated surf means that waves will
be high enough to cause danger to inexperienced swimmers in the
water. Elevated surf also frequently results in strong rip
currents which can drag people away from the shore and possibly
result in drowning. Always swim near a lifeguard.